Time;durP1;ratioP1;P1;durP2;ratioP2;P2;SDS_P1;SDS_P2;PMS_P1;PMS_P2;Temp;Humidity;BMP_temperature;BMP_pressure;BME280_temperature;BME280_humidity;BME280_pressure;Samples;Min_cycle;Max_cycle;Signal;HPM_P1;HPM_P2
2022/04/27 00:02:01;;;;;;;2.40;1.13;;;;;;;7.24;100.00;98853.44;5072923;28;20049;-74
2022/04/27 00:04:46;;;;;;;2.78;1.50;;;;;;;7.27;100.00;98850.66;5072914;28;20067;-73
2022/04/27 00:07:31;;;;;;;2.05;1.38;;;;;;;7.04;100.00;98851.88;5073193;28;20036;-75
2022/04/27 00:10:15;;;;;;;2.55;1.20;;;;;;;7.08;100.00;98848.19;5072041;28;20048;-73
2022/04/27 00:13:00;;;;;;;2.25;1.40;;;;;;;7.19;100.00;98855.44;5072155;28;20040;-73
2022/04/27 00:15:45;;;;;;;1.85;1.10;;;;;;;7.03;100.00;98848.41;5071898;28;20261;-73
2022/04/27 00:18:30;;;;;;;1.77;0.98;;;;;;;7.04;100.00;98849.25;5072732;28;20032;-75
2022/04/27 00:21:14;;;;;;;2.42;1.17;;;;;;;7.03;100.00;98850.19;5086443;28;20053;-75
2022/04/27 00:23:59;;;;;;;1.52;0.93;;;;;;;6.96;100.00;98846.22;5057782;28;20044;-74
2022/04/27 00:26:45;;;;;;;1.90;1.13;;;;;;;6.98;100.00;98847.84;5058514;28;20044;-73
2022/04/27 00:29:30;;;;;;;1.77;0.90;;;;;;;7.00;100.00;98852.97;5073600;28;20045;-76
2022/04/27 00:32:14;;;;;;;2.42;1.33;;;;;;;6.82;100.00;98849.56;5043563;28;20036;-74
2022/04/27 00:35:00;;;;;;;1.70;0.95;;;;;;;6.82;100.00;98841.75;5071219;28;20040;-73
2022/04/27 00:37:47;;;;;;;3.28;0.90;;;;;;;7.03;100.00;98839.78;5099784;28;20040;-73
2022/04/27 00:40:31;;;;;;;1.65;1.02;;;;;;;6.90;100.00;98836.97;5070467;28;20418;-74
2022/04/27 00:43:33;;;;;;;1.50;0.90;;;;;;;6.83;100.00;98844.25;5071430;28;20480;-75
2022/04/27 00:46:19;;;;;;;1.80;1.00;;;;;;;6.81;100.00;98840.88;5085512;28;20040;-74
2022/04/27 00:49:05;;;;;;;1.52;0.88;;;;;;;6.75;100.00;98843.81;5065179;28;20122;-77
2022/04/27 00:51:50;;;;;;;2.42;0.90;;;;;;;6.77;100.00;98835.00;5037001;28;20090;-75
2022/04/27 00:54:35;;;;;;;0.82;0.60;;;;;;;6.82;100.00;98828.72;5051909;28;20506;-75
2022/04/27 00:57:26;;;;;;;1.10;0.77;;;;;;;6.68;100.00;98830.25;5037055;28;20041;-74
2022/04/27 01:00:11;;;;;;;1.27;0.68;;;;;;;6.84;100.00;98838.13;5051233;28;20127;-75
2022/04/27 01:02:57;;;;;;;3.83;1.77;;;;;;;6.94;100.00;98837.63;5065275;28;20040;-74
2022/04/27 01:05:42;;;;;;;1.33;0.80;;;;;;;7.05;100.00;98839.69;5037304;28;20045;-75
2022/04/27 01:08:29;;;;;;;1.52;0.80;;;;;;;6.90;100.00;98845.59;5076025;28;20037;-74
2022/04/27 01:11:15;;;;;;;1.35;0.75;;;;;;;6.93;100.00;98843.78;5086593;28;20045;-76
2022/04/27 01:14:07;;;;;;;0.95;0.73;;;;;;;6.86;100.00;98843.25;5058142;28;20041;-74
2022/04/27 01:16:53;;;;;;;1.10;0.60;;;;;;;6.76;100.00;98845.47;5070511;28;20036;-75
2022/04/27 01:19:38;;;;;;;1.80;0.63;;;;;;;6.80;100.00;98843.56;5070631;28;20032;-74
2022/04/27 01:22:24;;;;;;;1.20;0.60;;;;;;;6.76;100.00;98845.47;5071067;28;20044;-75
2022/04/27 01:25:11;;;;;;;0.85;0.60;;;;;;;7.02;100.00;98838.06;5071040;28;20032;-74
2022/04/27 01:27:56;;;;;;;1.70;0.80;;;;;;;7.00;100.00;98842.53;5056801;28;20426;-76
2022/04/27 01:30:40;;;;;;;1.20;0.70;;;;;;;6.93;100.00;98844.63;5056471;28;20387;-75
2022/04/27 01:33:27;;;;;;;1.50;0.80;;;;;;;6.78;100.00;98849.72;5042833;28;20032;-74
2022/04/27 01:36:15;;;;;;;1.08;0.80;;;;;;;6.86;100.00;98858.88;5070633;28;20120;-76
2022/04/27 01:39:00;;;;;;;1.10;0.60;;;;;;;6.78;100.00;98856.66;5070476;28;20040;-74
2022/04/27 01:41:45;;;;;;;1.00;0.55;;;;;;;6.89;100.00;98858.72;5042501;28;20036;-74
2022/04/27 01:44:32;;;;;;;1.25;0.60;;;;;;;7.05;100.00;98856.16;5056301;28;20040;-76
2022/04/27 01:47:17;;;;;;;1.27;0.60;;;;;;;7.10;100.00;98866.34;5070098;28;20504;-75
2022/04/27 01:50:03;;;;;;;2.22;0.80;;;;;;;7.16;100.00;98853.00;5071343;28;20037;-75
2022/04/27 01:55:53;;;;;;;1.25;0.68;;;;;;;6.66;100.00;98850.31;5049109;28;20493;-72
2022/04/27 01:58:41;;;;;;;1.33;0.60;;;;;;;6.69;100.00;98842.34;5074716;28;20032;-74
2022/04/27 02:01:27;;;;;;;2.05;0.60;;;;;;;6.80;100.00;98839.22;5074345;28;20068;-76
2022/04/27 02:04:17;;;;;;;2.20;0.70;;;;;;;6.87;100.00;98840.56;5046796;28;20098;-77
2022/04/27 02:07:02;;;;;;;1.58;0.90;;;;;;;6.93;100.00;98854.19;5046088;28;20040;-73
2022/04/27 02:09:48;;;;;;;1.08;0.55;;;;;;;7.02;100.00;98861.53;5038196;28;20029;-77
2022/04/27 02:12:37;;;;;;;2.17;0.77;;;;;;;7.12;100.00;98854.91;5091806;28;20040;-78
2022/04/27 02:15:32;;;;;;;1.08;0.63;;;;;;;6.91;100.00;98859.47;5074579;28;20037;-74
2022/04/27 02:18:31;;;;;;;1.80;0.98;;;;;;;6.84;100.00;98864.16;5060544;28;20499;-74
2022/04/27 02:21:16;;;;;;;1.55;0.80;;;;;;;6.97;100.00;98864.38;5092088;28;20076;-75
2022/04/27 02:24:01;;;;;;;1.52;0.70;;;;;;;6.93;100.00;98848.97;5078596;28;20040;-74
2022/04/27 02:26:45;;;;;;;1.58;0.88;;;;;;;6.70;100.00;98846.66;5091954;28;20040;-71
2022/04/27 02:29:30;;;;;;;2.72;0.70;;;;;;;6.72;100.00;98851.78;5068665;28;20391;-75
2022/04/27 02:32:24;;;;;;;1.70;1.20;;;;;;;6.65;100.00;98851.25;5063879;28;20033;-74
2022/04/27 02:35:09;;;;;;;0.95;0.45;;;;;;;6.70;100.00;98838.00;5077729;28;20051;-74
2022/04/27 02:37:57;;;;;;;1.67;1.00;;;;;;;6.52;100.00;98836.25;5061243;28;20440;-74
2022/04/27 02:40:42;;;;;;;1.48;0.93;;;;;;;6.49;100.00;98823.41;5061042;28;20091;-74
2022/04/27 02:43:27;;;;;;;1.30;0.80;;;;;;;6.55;100.00;98830.06;5075237;28;20059;-74
2022/04/27 02:46:13;;;;;;;2.88;1.25;;;;;;;6.46;100.00;98833.13;5059865;28;20036;-74
2022/04/27 02:52:03;;;;;;;2.05;1.10;;;;;;;6.54;100.00;98838.78;5073498;28;20102;-74
2022/04/27 02:55:08;;;;;;;2.03;0.90;;;;;;;6.63;100.00;98837.47;5074307;28;20040;-74
2022/04/27 02:57:53;;;;;;;2.15;1.08;;;;;;;6.66;100.00;98839.91;5059105;28;20036;-74
2022/04/27 03:00:39;;;;;;;2.13;1.38;;;;;;;6.62;100.00;98841.84;5056751;28;20036;-75
2022/04/27 03:03:27;;;;;;;2.08;1.13;;;;;;;6.65;100.00;98859.91;5060390;28;20044;-75
2022/04/27 03:06:15;;;;;;;2.83;1.92;;;;;;;6.69;100.00;98851.94;5058805;28;20064;-76
2022/04/27 03:09:11;;;;;;;2.10;1.30;;;;;;;6.51;100.00;98849.34;5046968;28;20102;-74
2022/04/27 03:11:57;;;;;;;2.25;1.20;;;;;;;6.50;100.00;98851.09;5024903;28;20099;-74
2022/04/27 03:14:47;;;;;;;2.22;1.30;;;;;;;6.42;100.00;98850.66;5081546;28;20392;-75
2022/04/27 03:17:35;;;;;;;2.30;1.30;;;;;;;6.43;100.00;98852.31;5066878;28;20395;-74
2022/04/27 03:20:21;;;;;;;3.22;1.67;;;;;;;6.43;100.00;98854.09;5049128;28;20424;-74
2022/04/27 03:23:07;;;;;;;2.35;1.55;;;;;;;6.39;100.00;98843.00;5031266;28;20044;-75
2022/04/27 03:25:51;;;;;;;2.50;1.30;;;;;;;6.49;100.00;98843.38;5060416;28;20044;-74
2022/04/27 03:28:38;;;;;;;3.90;1.67;;;;;;;6.41;100.00;98848.97;5074852;28;20040;-75
2022/04/27 03:31:23;;;;;;;3.75;1.88;;;;;;;6.55;100.00;98852.63;5083218;28;20040;-73
2022/04/27 03:34:10;;;;;;;2.83;1.73;;;;;;;6.56;100.00;98865.56;5068304;28;20471;-73
2022/04/27 03:36:56;;;;;;;3.72;1.92;;;;;;;6.44;100.00;98858.38;5062390;28;20045;-74
2022/04/27 03:39:41;;;;;;;3.15;1.95;;;;;;;6.40;100.00;98863.75;5094844;28;20033;-73
2022/04/27 03:42:28;;;;;;;2.45;1.60;;;;;;;6.62;100.00;98859.22;5059588;28;20444;-73
2022/04/27 03:45:19;;;;;;;2.42;1.77;;;;;;;6.69;100.00;98870.16;5061764;28;20553;-75
2022/04/27 03:48:07;;;;;;;2.63;1.40;;;;;;;6.49;100.00;98878.06;5057229;28;20491;-73
2022/04/27 03:50:52;;;;;;;2.70;1.90;;;;;;;6.52;100.00;98872.72;5063013;28;20037;-76
2022/04/27 03:53:37;;;;;;;2.38;1.40;;;;;;;6.39;100.00;98874.22;5060957;28;20028;-72
2022/04/27 03:56:22;;;;;;;3.22;1.70;;;;;;;6.45;100.00;98873.91;5037152;28;20049;-73
2022/04/27 03:59:06;;;;;;;4.00;1.80;;;;;;;6.39;100.00;98869.88;5051934;28;20071;-75
2022/04/27 04:01:53;;;;;;;3.72;1.70;;;;;;;6.45;100.00;98876.53;5038057;28;20087;-71
2022/04/27 04:04:37;;;;;;;4.82;2.10;;;;;;;6.71;100.00;98866.56;5051803;28;20056;-73
2022/04/27 04:07:22;;;;;;;3.75;1.90;;;;;;;6.49;100.00;98875.47;5065691;28;20061;-76
2022/04/27 04:10:15;;;;;;;3.97;2.20;;;;;;;6.49;100.00;98870.25;5050289;28;20124;-76
2022/04/27 04:13:05;;;;;;;5.95;2.03;;;;;;;6.69;100.00;98886.63;5038122;28;20396;-75
2022/04/27 04:16:05;;;;;;;3.78;2.25;;;;;;;6.85;100.00;98881.50;5039456;28;20040;-75
2022/04/27 04:19:17;;;;;;;3.72;2.35;;;;;;;6.76;100.00;98892.34;5049149;28;20075;-75
2022/04/27 04:22:24;;;;;;;4.18;2.13;;;;;;;6.76;100.00;98901.03;5071547;28;20090;-75
2022/04/27 04:28:35;;;;;;;6.18;2.38;;;;;;;6.67;100.00;98903.25;5071348;28;20044;-75
2022/04/27 04:31:21;;;;;;;3.10;1.88;;;;;;;6.89;100.00;98913.41;5070678;28;20146;-77
2022/04/27 04:34:25;;;;;;;3.30;1.65;;;;;;;7.02;100.00;98908.41;5071521;28;20359;-76
2022/04/27 04:37:10;;;;;;;4.97;2.50;;;;;;;6.97;100.00;98920.84;5072368;28;20045;-76
2022/04/27 04:39:55;;;;;;;3.78;2.15;;;;;;;7.05;100.00;98929.09;5057265;28;20115;-76
2022/04/27 04:42:42;;;;;;;3.85;2.03;;;;;;;7.09;100.00;98916.75;5071426;28;20044;-76
2022/04/27 04:45:27;;;;;;;3.75;2.38;;;;;;;7.00;100.00;98926.72;5057190;28;20032;-75
2022/04/27 04:48:31;;;;;;;3.83;2.30;;;;;;;7.15;100.00;98926.84;5071985;28;20041;-76
2022/04/27 04:51:28;;;;;;;4.28;2.35;;;;;;;7.12;100.00;98935.69;5072058;28;20119;-76
2022/04/27 04:54:32;;;;;;;3.72;2.08;;;;;;;7.25;100.00;98940.25;5070769;28;20106;-76
2022/04/27 04:57:36;;;;;;;3.90;2.33;;;;;;;7.43;100.00;98955.84;5082895;28;20060;-76
2022/04/27 05:00:39;;;;;;;3.08;1.55;;;;;;;7.58;99.84;98965.47;5056973;28;20468;-75
2022/04/27 05:03:44;;;;;;;4.68;1.90;;;;;;;7.70;99.26;98968.34;5055688;28;20390;-75
2022/04/27 05:06:48;;;;;;;4.53;2.20;;;;;;;7.54;100.00;98961.34;5045582;28;20050;-75
2022/04/27 05:10:05;;;;;;;3.75;1.90;;;;;;;7.60;100.00;98975.84;5053682;28;20048;-77
2022/04/27 05:13:02;;;;;;;4.20;2.10;;;;;;;7.73;99.21;98976.88;5070711;28;20390;-76
2022/04/27 05:16:07;;;;;;;2.00;1.13;;;;;;;7.77;99.25;98974.91;5071170;28;20044;-76
2022/04/27 05:19:17;;;;;;;3.60;1.27;;;;;;;8.22;100.00;98977.72;5071178;28;20040;-60
2022/04/27 05:22:33;;;;;;;5.30;2.53;;;;;;;8.67;100.00;98977.00;5073583;28;20463;-72
2022/04/27 05:25:37;;;;;;;5.05;2.10;;;;;;;9.16;98.28;98980.31;5059176;28;20037;-65
2022/04/27 05:32:05;;;;;;;74.25;40.30;;;;;;;8.39;98.44;98973.31;5061705;28;20066;-54
2022/04/27 05:34:56;;;;;;;;;;;;;;;9.20;89.17;98973.13;5070499;28;20052;-60
2022/04/27 05:38:09;;;;;;;9.82;5.78;;;;;;;8.18;91.07;98973.59;5060099;28;19928;-62
2022/04/27 05:41:14;;;;;;;15.27;6.53;;;;;;;7.70;92.25;98970.97;5071583;28;20058;-61
2022/04/27 05:44:09;;;;;;;10.50;6.15;;;;;;;7.51;91.98;98959.75;5070273;28;20040;-61
2022/04/27 05:47:13;;;;;;;10.07;5.72;;;;;;;7.47;93.02;98967.81;5070376;28;20372;-60
2022/04/27 05:50:31;;;;;;;10.30;5.97;;;;;;;7.51;92.70;98971.94;5070472;28;20040;-60
2022/04/27 05:53:23;;;;;;;9.90;6.00;;;;;;;7.56;92.32;98974.28;5070279;28;20048;-64
2022/04/27 05:56:43;;;;;;;13.93;5.70;;;;;;;7.44;93.81;98984.44;5029121;28;20529;-61
2022/04/27 05:59:56;;;;;;;11.82;5.45;;;;;;;7.62;93.13;98982.63;5070946;28;20043;-61
2022/04/27 06:02:59;;;;;;;13.43;6.60;;;;;;;7.52;93.52;98978.84;5071703;28;20056;-60
2022/04/27 06:05:47;;;;;;;13.02;6.63;;;;;;;7.51;93.10;98978.00;5056336;28;20110;-59
2022/04/27 06:08:36;;;;;;;11.77;6.55;;;;;;;7.53;93.15;98977.91;5070433;28;20121;-62
2022/04/27 06:11:23;;;;;;;13.30;7.18;;;;;;;7.85;92.63;98979.75;5070416;28;20059;-60
2022/04/27 06:14:40;;;;;;;13.13;6.03;;;;;;;7.51;93.70;98980.59;5033023;28;20049;-60
2022/04/27 06:17:32;;;;;;;11.02;6.60;;;;;;;7.54;94.33;98981.38;5052412;28;20036;-59
2022/04/27 06:20:20;;;;;;;11.18;6.70;;;;;;;7.54;95.22;98984.81;5088452;28;20052;-60
2022/04/27 06:23:05;;;;;;;15.38;7.53;;;;;;;7.56;94.22;98996.00;5051151;28;20048;-63
2022/04/27 06:25:50;;;;;;;14.10;7.85;;;;;;;7.63;93.13;98999.97;5052948;28;20380;-60
2022/04/27 06:28:41;;;;;;;14.80;7.28;;;;;;;7.78;91.07;99000.09;5078664;28;20033;-60
2022/04/27 06:31:27;;;;;;;16.92;8.02;;;;;;;7.78;89.22;99012.28;5049806;28;20041;-59
2022/04/27 06:34:15;;;;;;;13.02;7.18;;;;;;;7.96;89.81;99005.25;5049649;28;20130;-60
2022/04/27 06:37:00;;;;;;;16.02;8.75;;;;;;;7.89;87.20;99002.13;5063295;28;20467;-59
2022/04/27 06:39:53;;;;;;;16.33;7.85;;;;;;;7.94;87.71;99004.47;5069863;28;20040;-59
2022/04/27 06:42:43;;;;;;;18.35;8.95;;;;;;;7.83;86.59;99003.31;5073523;28;20044;-61
2022/04/27 06:45:46;;;;;;;19.73;8.82;;;;;;;7.91;85.77;98997.66;5073463;28;20276;-62
2022/04/27 06:48:49;;;;;;;18.27;9.25;;;;;;;7.92;84.76;98996.72;5074179;28;20402;-59
2022/04/27 06:52:08;;;;;;;16.60;8.35;;;;;;;7.98;84.82;99004.22;5021493;28;20472;-59
2022/04/27 06:55:19;;;;;;;19.23;9.00;;;;;;;8.05;84.42;99004.75;5058433;28;20106;-59
2022/04/27 06:58:24;;;;;;;17.77;9.38;;;;;;;8.14;83.80;99001.63;5057937;28;20052;-60
2022/04/27 07:01:21;;;;;;;17.00;8.68;;;;;;;8.12;83.64;99005.25;5073867;28;20516;-60
2022/04/27 07:04:11;;;;;;;15.05;8.38;;;;;;;8.40;83.09;99005.50;5059081;28;20047;-59
2022/04/27 07:06:56;;;;;;;14.63;7.28;;;;;;;8.38;83.04;99009.03;5088139;28;20044;-59
2022/04/27 07:09:40;;;;;;;15.65;7.55;;;;;;;8.50;81.09;99017.13;5072708;28;20044;-60
2022/04/27 07:12:25;;;;;;;20.70;8.18;;;;;;;8.52;80.50;99006.59;5072385;28;20387;-59
2022/04/27 07:15:13;;;;;;;15.15;8.20;;;;;;;8.58;79.79;99012.34;5073882;28;20093;-60
2022/04/27 07:17:57;;;;;;;16.15;8.60;;;;;;;8.47;79.78;99010.28;5077758;28;20541;-60
2022/04/27 07:20:42;;;;;;;16.88;8.57;;;;;;;8.65;79.46;99006.78;5082004;28;20052;-60
2022/04/27 07:23:27;;;;;;;16.38;7.50;;;;;;;8.75;79.21;99008.75;5076618;28;20041;-60
2022/04/27 07:26:11;;;;;;;17.30;7.93;;;;;;;8.78;77.93;99018.19;5077024;28;20039;-62
2022/04/27 07:28:57;;;;;;;16.60;9.02;;;;;;;8.73;77.46;99017.63;5074876;28;20040;-59
2022/04/27 07:31:41;;;;;;;14.18;7.70;;;;;;;8.79;77.32;99019.03;5075862;28;20383;-59
2022/04/27 07:34:27;;;;;;;17.58;8.00;;;;;;;8.96;76.75;99020.69;5084296;28;20056;-60
2022/04/27 07:37:12;;;;;;;17.70;7.72;;;;;;;9.13;76.20;99022.31;5085608;28;20040;-60
2022/04/27 07:39:58;;;;;;;16.33;8.32;;;;;;;9.16;75.11;99027.34;5080025;28;20048;-63
2022/04/27 07:42:43;;;;;;;12.48;6.95;;;;;;;9.28;74.93;99019.72;5073615;28;20720;-59
2022/04/27 07:45:28;;;;;;;16.35;8.18;;;;;;;9.31;74.83;99015.16;5073932;28;20098;-59
2022/04/27 07:48:13;;;;;;;14.30;7.20;;;;;;;9.65;73.48;99030.59;5073797;28;20036;-60
2022/04/27 07:51:06;;;;;;;15.85;7.43;;;;;;;9.42;74.23;99031.97;5071876;28;20037;-59
2022/04/27 07:53:51;;;;;;;12.85;6.78;;;;;;;9.38;74.06;99026.09;5072741;28;20432;-60
2022/04/27 07:56:35;;;;;;;15.57;7.10;;;;;;;9.77;72.94;99017.69;5058611;28;20047;-59
2022/04/27 07:59:20;;;;;;;13.23;6.35;;;;;;;9.93;72.00;99028.91;5073530;28;20051;-60
2022/04/27 08:02:06;;;;;;;14.05;6.82;;;;;;;9.94;71.52;99033.19;5073002;28;20510;-60
2022/04/27 08:04:50;;;;;;;12.20;6.43;;;;;;;9.92;71.52;99037.69;5071924;28;20048;-60
2022/04/27 08:07:41;;;;;;;13.00;6.50;;;;;;;10.06;70.96;99036.84;5073164;28;20043;-59
2022/04/27 08:10:26;;;;;;;14.23;5.40;;;;;;;10.20;69.97;99049.06;5072759;28;20506;-59
2022/04/27 08:13:10;;;;;;;12.63;6.35;;;;;;;10.48;68.88;99049.13;5071491;28;20044;-62
2022/04/27 08:15:57;;;;;;;14.65;7.35;;;;;;;10.13;68.88;99042.53;5073388;28;20045;-60
2022/04/27 08:18:42;;;;;;;14.82;6.18;;;;;;;10.39;68.68;99045.31;5073293;28;20044;-61
2022/04/27 08:21:27;;;;;;;13.68;6.55;;;;;;;10.17;69.18;99049.25;5072062;28;20049;-61
2022/04/27 08:24:14;;;;;;;13.93;6.70;;;;;;;10.23;68.83;99041.00;5072103;28;20032;-60
2022/04/27 08:26:58;;;;;;;11.65;6.10;;;;;;;10.39;68.43;99047.06;5072943;28;20052;-60
2022/04/27 08:29:43;;;;;;;10.90;5.50;;;;;;;10.86;67.27;99052.84;5057948;28;20078;-60
2022/04/27 08:32:28;;;;;;;11.48;5.60;;;;;;;11.07;66.98;99052.38;5071831;28;20064;-60
2022/04/27 08:35:13;;;;;;;12.95;6.22;;;;;;;11.36;65.57;99051.38;5072844;28;20471;-59
2022/04/27 08:38:01;;;;;;;12.00;6.50;;;;;;;10.99;68.63;99050.25;5071713;28;20115;-60
2022/04/27 08:40:47;;;;;;;14.60;7.60;;;;;;;10.94;66.36;99049.72;5071818;28;20040;-59
2022/04/27 08:43:31;;;;;;;15.60;7.80;;;;;;;10.87;67.25;99046.66;5072220;28;20207;-60
2022/04/27 08:46:16;;;;;;;15.40;7.30;;;;;;;11.00;65.89;99045.88;5072235;28;20581;-54
2022/04/27 08:49:01;;;;;;;14.25;7.28;;;;;;;11.03;66.51;99040.41;5072484;28;20114;-62
2022/04/27 08:51:48;;;;;;;16.05;7.57;;;;;;;11.10;65.99;99049.53;5071346;28;20052;-61
2022/04/27 08:54:35;;;;;;;13.15;7.05;;;;;;;10.96;66.43;99059.19;5070989;28;20425;-61
2022/04/27 08:57:19;;;;;;;12.13;6.85;;;;;;;11.82;64.73;99063.97;5071129;28;20047;-62
2022/04/27 09:00:07;;;;;;;12.32;5.35;;;;;;;12.34;64.47;99060.44;5071215;28;20468;-59
2022/04/27 09:02:55;;;;;;;14.18;7.07;;;;;;;12.62;60.71;99071.59;5063365;28;20045;-62
2022/04/27 09:05:52;;;;;;;17.65;8.25;;;;;;;11.60;63.21;99071.63;5078650;28;20111;-61
2022/04/27 09:08:46;;;;;;;15.48;7.53;;;;;;;11.49;63.64;99070.56;5064076;28;20037;-60
2022/04/27 09:11:33;;;;;;;18.70;7.30;;;;;;;12.13;61.85;99075.94;5054361;28;20049;-62
2022/04/27 09:14:18;;;;;;;9.75;5.90;;;;;;;12.16;62.50;99073.94;5050788;28;20446;-61
2022/04/27 09:23:23;;;;;;;13.00;6.95;;;;;;;12.09;62.83;99087.59;5071643;28;20490;-61
2022/04/27 09:26:19;;;;;;;14.15;7.45;;;;;;;11.87;62.07;99079.41;5071934;28;20049;-62
2022/04/27 09:29:05;;;;;;;14.77;7.22;;;;;;;11.79;61.76;99089.59;5070752;28;20399;-62
2022/04/27 09:31:57;;;;;;;13.20;6.82;;;;;;;12.34;61.86;99078.84;5070745;28;20041;-62
2022/04/27 09:34:43;;;;;;;;;;;;;;;12.37;62.23;99093.56;5072135;28;20495;-62
2022/04/27 09:37:30;;;;;;;14.90;7.55;;;;;;;11.64;62.52;99086.22;5056455;28;19916;-60
2022/04/27 09:40:16;;;;;;;16.33;8.00;;;;;;;11.66;64.09;99093.06;5070131;28;20125;-62
2022/04/27 09:43:00;;;;;;;18.15;7.25;;;;;;;12.17;62.43;99088.75;5070597;28;20036;-62
2022/04/27 09:45:45;;;;;;;13.70;7.22;;;;;;;11.73;62.56;99090.88;5071039;28;20047;-62
2022/04/27 09:48:30;;;;;;;12.27;6.55;;;;;;;11.78;62.70;99087.91;5070067;28;20044;-61
2022/04/27 09:51:15;;;;;;;16.45;7.07;;;;;;;11.95;61.69;99089.38;5069687;28;20041;-62
2022/04/27 09:54:03;;;;;;;15.50;7.10;;;;;;;12.35;62.26;99085.78;5050344;28;20045;-60
2022/04/27 09:56:51;;;;;;;17.10;7.88;;;;;;;11.83;62.19;99086.66;5051377;28;20033;-61
2022/04/27 09:59:37;;;;;;;15.20;8.27;;;;;;;12.05;61.57;99082.53;5051420;28;20550;-60
2022/04/27 10:02:27;;;;;;;16.08;7.75;;;;;;;12.05;60.51;99082.53;5078032;28;20045;-61
2022/04/27 10:05:12;;;;;;;14.95;7.05;;;;;;;12.09;60.30;99088.47;5051207;28;20032;-60
2022/04/27 10:08:00;;;;;;;16.17;8.07;;;;;;;11.66;61.51;99098.31;5051379;28;20514;-59
2022/04/27 10:10:46;;;;;;;17.17;7.85;;;;;;;11.75;62.27;99088.94;5051700;28;20044;-58
2022/04/27 10:13:32;;;;;;;13.68;7.07;;;;;;;11.86;61.25;99090.00;5052799;28;20044;-57
2022/04/27 10:16:17;;;;;;;15.10;7.15;;;;;;;12.42;62.43;99089.63;5040244;28;20057;-58
2022/04/27 10:19:02;;;;;;;14.80;6.45;;;;;;;12.41;60.51;99087.13;5053918;28;20041;-59
2022/04/27 10:21:59;;;;;;;16.90;8.63;;;;;;;12.51;60.35;99089.94;5040268;28;20045;-57
2022/04/27 10:24:46;;;;;;;15.32;6.70;;;;;;;12.43;59.15;99086.06;5039992;28;20044;-58
2022/04/27 10:27:50;;;;;;;13.48;6.65;;;;;;;12.59;59.64;99095.47;5054830;28;20041;-58
2022/04/27 10:30:44;;;;;;;13.77;6.40;;;;;;;12.76;59.45;99104.75;5055026;28;20139;-58
2022/04/27 10:33:50;;;;;;;12.32;6.85;;;;;;;13.13;60.52;99098.63;5054259;28;20078;-58
2022/04/27 10:36:34;;;;;;;13.63;6.57;;;;;;;12.76;57.79;99099.50;5053873;28;20045;-58
2022/04/27 10:39:27;;;;;;;39.05;16.13;;;;;;;12.60;62.98;99096.31;5054657;28;20036;-58
2022/04/27 10:42:20;;;;;;;16.38;7.20;;;;;;;12.59;59.67;99097.25;5054683;28;20052;-57
2022/04/27 10:45:06;;;;;;;17.55;7.50;;;;;;;12.92;60.62;99095.78;5054386;28;20071;-59
2022/04/27 10:47:51;;;;;;;15.48;8.07;;;;;;;13.23;58.37;99104.03;5053392;28;20052;-60
2022/04/27 10:50:36;;;;;;;14.60;7.75;;;;;;;12.42;59.61;99092.25;5053132;28;20376;-57
2022/04/27 10:53:23;;;;;;;16.52;8.02;;;;;;;13.17;60.81;99101.88;5053284;28;20451;-57
2022/04/27 10:56:22;;;;;;;14.75;6.88;;;;;;;12.75;62.20;99102.25;5054460;28;20045;-59
2022/04/27 10:59:45;;;;;;;12.68;5.93;;;;;;;13.71;62.54;99093.53;5053163;28;20907;-57
2022/04/27 11:02:41;;;;;;;16.30;6.63;;;;;;;13.68;57.63;99102.50;5052616;28;20063;-58
2022/04/27 11:05:26;;;;;;;14.45;6.60;;;;;;;13.73;57.46;99104.78;5052990;28;20393;-58
2022/04/27 11:08:39;;;;;;;14.05;6.47;;;;;;;13.03;57.57;99103.72;5081270;28;20068;-58
2022/04/27 11:11:26;;;;;;;16.10;7.40;;;;;;;12.96;57.72;99096.41;5053388;28;20472;-59
2022/04/27 11:14:12;;;;;;;17.80;8.38;;;;;;;13.20;57.11;99100.78;5053895;28;20045;-58
2022/04/27 11:16:58;;;;;;;15.52;7.00;;;;;;;13.41;56.27;99104.47;5071579;28;20419;-58
2022/04/27 11:19:42;;;;;;;16.08;6.63;;;;;;;13.57;63.56;99105.09;5058561;28;20043;-59
2022/04/27 11:22:28;;;;;;;20.90;7.00;;;;;;;13.73;57.32;99105.63;5073246;28;20112;-58
2022/04/27 11:25:21;;;;;;;16.45;7.55;;;;;;;14.06;57.65;99104.91;5074386;28;20105;-59
2022/04/27 11:28:08;;;;;;;13.52;6.28;;;;;;;14.63;55.50;99104.88;5063347;28;20049;-60
2022/04/27 11:30:54;;;;;;;12.73;6.80;;;;;;;13.40;55.05;99113.28;5064159;28;20127;-60
2022/04/27 11:33:40;;;;;;;14.07;6.65;;;;;;;13.14;57.27;99112.59;5072902;28;20472;-59
2022/04/27 11:36:27;;;;;;;13.25;7.28;;;;;;;13.08;58.21;99113.91;5072261;28;20039;-47
2022/04/27 11:39:23;;;;;;;12.85;5.95;;;;;;;13.02;57.86;99109.09;5073558;28;20497;-59
2022/04/27 11:42:12;;;;;;;13.10;6.97;;;;;;;13.39;58.92;99106.34;5072263;28;20049;-58
2022/04/27 11:45:00;;;;;;;14.15;6.78;;;;;;;13.32;56.29;99110.38;5058497;28;20037;-59
2022/04/27 11:47:59;;;;;;;18.73;7.70;;;;;;;13.43;57.68;99109.59;5073337;28;20037;-57
2022/04/27 11:50:44;;;;;;;13.80;6.45;;;;;;;13.82;56.65;99111.97;5072114;28;20037;-58
2022/04/27 11:53:30;;;;;;;15.40;6.90;;;;;;;14.73;56.16;99108.44;5073014;28;20037;-70
2022/04/27 11:56:17;;;;;;;14.10;6.53;;;;;;;14.53;57.10;99105.63;5053110;28;20143;-58
2022/04/27 11:59:07;;;;;;;15.43;6.35;;;;;;;13.79;54.11;99102.50;5052757;28;20365;-58
2022/04/27 12:01:52;;;;;;;13.15;6.00;;;;;;;13.69;54.15;99101.56;5052808;28;20079;-61
2022/04/27 12:04:38;;;;;;;14.05;6.35;;;;;;;13.29;55.11;99092.19;5052704;28;20120;-58
2022/04/27 12:07:22;;;;;;;11.43;6.30;;;;;;;13.33;55.30;99101.56;5080318;28;20099;-57
2022/04/27 12:10:14;;;;;;;11.85;6.43;;;;;;;13.21;55.15;99092.78;5053017;28;20099;-57
2022/04/27 12:13:00;;;;;;;13.30;6.55;;;;;;;13.01;55.15;99091.63;5078765;28;20064;-56
2022/04/27 12:15:49;;;;;;;14.48;6.50;;;;;;;13.26;56.53;99100.31;5052813;28;20460;-56
2022/04/27 12:18:34;;;;;;;11.18;5.70;;;;;;;13.62;55.96;99106.44;5052690;28;20483;-60
2022/04/27 12:21:27;;;;;;;10.38;5.55;;;;;;;13.70;56.83;99099.75;5070041;28;20399;-58
2022/04/27 12:24:20;;;;;;;13.95;5.97;;;;;;;13.65;56.03;99100.94;5072386;28;20041;-58
2022/04/27 12:27:17;;;;;;;12.30;5.60;;;;;;;13.22;56.55;99098.88;5071489;28;20040;-58
2022/04/27 12:30:06;;;;;;;15.18;5.95;;;;;;;13.27;57.13;99109.88;5073601;28;20036;-57
2022/04/27 12:32:51;;;;;;;12.02;6.10;;;;;;;13.12;58.83;99109.25;5046571;28;20045;-56
2022/04/27 12:39:02;;;;;;;11.52;6.20;;;;;;;13.11;58.53;99105.78;5072646;28;20188;-57
2022/04/27 12:41:49;;;;;;;11.80;6.28;;;;;;;13.16;58.81;99105.44;5073955;28;20044;-58
2022/04/27 12:44:42;;;;;;;12.23;5.97;;;;;;;12.83;59.53;99110.41;5078626;28;20045;-58
2022/04/27 12:47:27;;;;;;;13.98;6.55;;;;;;;12.79;60.88;99106.34;5081369;28;20056;-59
2022/04/27 12:50:12;;;;;;;12.63;6.47;;;;;;;12.59;60.52;99108.63;5074353;28;20040;-60
2022/04/27 12:53:10;;;;;;;16.52;6.72;;;;;;;12.60;60.43;99110.28;5070052;28;20045;-57
2022/04/27 12:56:06;;;;;;;11.63;6.45;;;;;;;12.83;61.40;99109.59;5052356;28;20041;-59
2022/04/27 12:59:12;;;;;;;16.70;6.93;;;;;;;12.31;62.89;99110.56;5072832;28;20391;-55
2022/04/27 13:02:04;;;;;;;16.70;7.82;;;;;;;12.27;64.00;99109.13;5052883;28;20064;-54
2022/04/27 13:04:48;;;;;;;14.02;7.35;;;;;;;12.13;63.51;99110.06;5051893;28;20420;-66
2022/04/27 13:07:35;;;;;;;16.67;7.72;;;;;;;11.95;64.86;99113.84;5023435;28;20048;-63
2022/04/27 13:13:23;;;;;;;17.88;8.30;;;;;;;11.83;64.83;99104.19;5030344;28;20045;-62
2022/04/27 13:16:07;;;;;;;15.07;7.57;;;;;;;11.57;66.19;99112.06;5053005;28;20043;-63
2022/04/27 13:18:52;;;;;;;16.08;8.00;;;;;;;11.48;67.01;99108.25;5048715;28;20055;-63
2022/04/27 13:21:37;;;;;;;16.75;7.50;;;;;;;11.82;66.57;99113.00;5052322;28;20060;-62
2022/04/27 13:24:21;;;;;;;14.43;6.47;;;;;;;11.74;67.82;99105.66;5052699;28;20068;-63
2022/04/27 13:27:06;;;;;;;17.63;7.80;;;;;;;11.55;69.12;99099.03;5056216;28;20048;-63
2022/04/27 13:29:52;;;;;;;18.42;7.47;;;;;;;11.51;68.49;99104.56;5051472;28;20041;-63
2022/04/27 13:32:38;;;;;;;13.38;6.32;;;;;;;11.21;70.21;99098.66;5050623;28;20048;-65
2022/04/27 13:35:24;;;;;;;15.43;7.53;;;;;;;11.17;70.07;99103.28;5050657;28;20045;-65
2022/04/27 13:38:09;;;;;;;17.70;7.68;;;;;;;11.08;70.50;99106.50;5036333;28;20091;-65
2022/04/27 13:40:55;;;;;;;14.68;7.57;;;;;;;11.08;70.96;99117.81;5036454;28;20041;-63
2022/04/27 13:43:39;;;;;;;13.48;7.22;;;;;;;10.98;72.24;99114.13;5051111;28;20060;-61